sensor_id;sensor_type;location;lat;lon;timestamp;temperature;humidity
21353;DHT22;10834;52.268;6.770;2022-09-24T00:13:32;16.30;80.70
21353;DHT22;10834;52.268;6.770;2022-09-24T00:25:25;16.30;80.70
21353;DHT22;10834;52.268;6.770;2022-09-24T00:28:41;16.30;80.70
21353;DHT22;10834;52.268;6.770;2022-09-24T01:01:15;16.20;80.70
21353;DHT22;10834;52.268;6.770;2022-09-24T01:30:29;16.20;81.10
21353;DHT22;10834;52.268;6.770;2022-09-24T01:34:10;16.20;81.10
21353;DHT22;10834;52.268;6.770;2022-09-24T02:15:24;16.10;81.20
21353;DHT22;10834;52.268;6.770;2022-09-24T02:23:08;16.20;81.20
21353;DHT22;10834;52.268;6.770;2022-09-24T02:37:52;16.10;81.20
21353;DHT22;10834;52.268;6.770;2022-09-24T02:48:14;16.10;81.20
21353;DHT22;10834;52.268;6.770;2022-09-24T03:02:48;16.10;81.20
21353;DHT22;10834;52.268;6.770;2022-09-24T03:24:57;16.10;81.30
21353;DHT22;10834;52.268;6.770;2022-09-24T03:28:18;16.10;81.30
21353;DHT22;10834;52.268;6.770;2022-09-24T03:31:35;16.10;81.40
21353;DHT22;10834;52.268;6.770;2022-09-24T03:35:49;16.10;81.40
21353;DHT22;10834;52.268;6.770;2022-09-24T03:47:33;16.00;81.50
21353;DHT22;10834;52.268;6.770;2022-09-24T03:54:35;16.00;81.60
21353;DHT22;10834;52.268;6.770;2022-09-24T03:58:07;16.00;81.60
21353;DHT22;10834;52.268;6.770;2022-09-24T04:16:26;16.00;81.80
21353;DHT22;10834;52.268;6.770;2022-09-24T04:42:11;16.00;81.80
21353;DHT22;10834;52.268;6.770;2022-09-24T04:53:32;16.00;81.80
21353;DHT22;10834;52.268;6.770;2022-09-24T04:57:26;16.00;81.80
21353;DHT22;10834;52.268;6.770;2022-09-24T05:12:32;16.00;81.80
21353;DHT22;10834;52.268;6.770;2022-09-24T05:19:39;16.00;81.80
21353;DHT22;10834;52.268;6.770;2022-09-24T05:26:54;15.90;81.80
21353;DHT22;10834;52.268;6.770;2022-09-24T05:53:08;15.90;82.10
21353;DHT22;10834;52.268;6.770;2022-09-24T06:10:52;15.90;82.30
21353;DHT22;10834;52.268;6.770;2022-09-24T06:25:30;15.90;82.40
21353;DHT22;10834;52.268;6.770;2022-09-24T06:53:05;15.90;82.60
21353;DHT22;10834;52.268;6.770;2022-09-24T06:55:55;15.90;82.60
21353;DHT22;10834;52.268;6.770;2022-09-24T06:58:42;15.90;82.60
21353;DHT22;10834;52.268;6.770;2022-09-24T07:01:28;15.90;82.60
21353;DHT22;10834;52.268;6.770;2022-09-24T07:04:14;15.90;82.60
21353;DHT22;10834;52.268;6.770;2022-09-24T07:07:00;15.90;82.60
21353;DHT22;10834;52.268;6.770;2022-09-24T07:10:07;15.90;82.60
21353;DHT22;10834;52.268;6.770;2022-09-24T07:12:55;15.90;82.60
21353;DHT22;10834;52.268;6.770;2022-09-24T07:15:42;15.90;82.60
21353;DHT22;10834;52.268;6.770;2022-09-24T07:18:28;15.90;82.60
21353;DHT22;10834;52.268;6.770;2022-09-24T07:21:14;15.90;82.60
21353;DHT22;10834;52.268;6.770;2022-09-24T07:24:00;15.90;82.60
21353;DHT22;10834;52.268;6.770;2022-09-24T07:26:46;15.90;82.70
21353;DHT22;10834;52.268;6.770;2022-09-24T07:29:33;15.90;82.70
21353;DHT22;10834;52.268;6.770;2022-09-24T07:32:19;15.90;82.70
21353;DHT22;10834;52.268;6.770;2022-09-24T07:35:05;15.90;82.70
21353;DHT22;10834;52.268;6.770;2022-09-24T07:37:58;15.90;82.70
21353;DHT22;10834;52.268;6.770;2022-09-24T07:40:45;15.90;82.80
21353;DHT22;10834;52.268;6.770;2022-09-24T07:43:57;15.90;82.80
21353;DHT22;10834;52.268;6.770;2022-09-24T07:46:48;15.90;82.80
21353;DHT22;10834;52.268;6.770;2022-09-24T08:04:33;15.90;82.30
21353;DHT22;10834;52.268;6.770;2022-09-24T08:07:19;16.10;83.90
21353;DHT22;10834;52.268;6.770;2022-09-24T08:10:05;16.10;84.00
21353;DHT22;10834;52.268;6.770;2022-09-24T08:12:52;16.10;84.00
21353;DHT22;10834;52.268;6.770;2022-09-24T08:15:38;16.10;84.10
21353;DHT22;10834;52.268;6.770;2022-09-24T08:18:24;16.10;84.20
21353;DHT22;10834;52.268;6.770;2022-09-24T08:21:11;16.10;84.10
21353;DHT22;10834;52.268;6.770;2022-09-24T08:23:57;16.10;84.00
21353;DHT22;10834;52.268;6.770;2022-09-24T08:26:43;16.10;83.90
21353;DHT22;10834;52.268;6.770;2022-09-24T08:29:29;16.10;83.90
21353;DHT22;10834;52.268;6.770;2022-09-24T08:32:15;16.10;83.70
21353;DHT22;10834;52.268;6.770;2022-09-24T08:35:02;16.10;83.60
21353;DHT22;10834;52.268;6.770;2022-09-24T08:37:48;16.10;83.60
21353;DHT22;10834;52.268;6.770;2022-09-24T08:40:48;16.10;83.50
21353;DHT22;10834;52.268;6.770;2022-09-24T08:46:48;16.10;83.40
21353;DHT22;10834;52.268;6.770;2022-09-24T08:50:00;16.10;83.40
21353;DHT22;10834;52.268;6.770;2022-09-24T08:52:55;16.10;83.40
21353;DHT22;10834;52.268;6.770;2022-09-24T08:55:46;16.10;83.30
21353;DHT22;10834;52.268;6.770;2022-09-24T08:58:37;16.10;83.30
21353;DHT22;10834;52.268;6.770;2022-09-24T09:04:27;16.10;83.30
21353;DHT22;10834;52.268;6.770;2022-09-24T09:07:24;16.10;83.30
21353;DHT22;10834;52.268;6.770;2022-09-24T09:10:21;16.10;83.40
21353;DHT22;10834;52.268;6.770;2022-09-24T09:13:16;16.10;83.60
21353;DHT22;10834;52.268;6.770;2022-09-24T09:16:28;16.10;83.60
21353;DHT22;10834;52.268;6.770;2022-09-24T09:19:16;16.10;83.90
21353;DHT22;10834;52.268;6.770;2022-09-24T09:22:13;16.10;84.00
21353;DHT22;10834;52.268;6.770;2022-09-24T09:25:09;16.20;84.40
21353;DHT22;10834;52.268;6.770;2022-09-24T09:28:01;16.20;84.40
21353;DHT22;10834;52.268;6.770;2022-09-24T09:34:20;16.20;84.70
21353;DHT22;10834;52.268;6.770;2022-09-24T09:43:02;16.20;84.80
21353;DHT22;10834;52.268;6.770;2022-09-24T09:45:56;16.30;84.80
21353;DHT22;10834;52.268;6.770;2022-09-24T09:48:46;16.20;84.80
21353;DHT22;10834;52.268;6.770;2022-09-24T09:51:38;16.20;84.70
21353;DHT22;10834;52.268;6.770;2022-09-24T09:54:36;16.20;84.60
21353;DHT22;10834;52.268;6.770;2022-09-24T09:57:23;16.20;84.40
21353;DHT22;10834;52.268;6.770;2022-09-24T10:00:33;16.20;84.40
21353;DHT22;10834;52.268;6.770;2022-09-24T10:03:25;16.30;84.40
21353;DHT22;10834;52.268;6.770;2022-09-24T10:06:22;16.20;84.10
21353;DHT22;10834;52.268;6.770;2022-09-24T10:09:17;16.20;84.00
21353;DHT22;10834;52.268;6.770;2022-09-24T10:12:15;16.20;84.60
21353;DHT22;10834;52.268;6.770;2022-09-24T10:18:01;16.20;83.70
21353;DHT22;10834;52.268;6.770;2022-09-24T10:20:47;16.30;83.70
21353;DHT22;10834;52.268;6.770;2022-09-24T10:23:37;16.20;83.60
21353;DHT22;10834;52.268;6.770;2022-09-24T10:26:34;16.20;83.50
21353;DHT22;10834;52.268;6.770;2022-09-24T10:29:25;16.20;83.50
21353;DHT22;10834;52.268;6.770;2022-09-24T10:32:31;16.20;83.40
21353;DHT22;10834;52.268;6.770;2022-09-24T10:35:30;16.20;83.30
21353;DHT22;10834;52.268;6.770;2022-09-24T10:38:20;16.20;83.30
21353;DHT22;10834;52.268;6.770;2022-09-24T10:41:24;16.30;83.40
21353;DHT22;10834;52.268;6.770;2022-09-24T10:44:11;16.20;83.20
21353;DHT22;10834;52.268;6.770;2022-09-24T10:47:25;16.30;83.20
21353;DHT22;10834;52.268;6.770;2022-09-24T10:50:29;16.30;83.20
21353;DHT22;10834;52.268;6.770;2022-09-24T10:56:40;16.20;83.10
21353;DHT22;10834;52.268;6.770;2022-09-24T11:02:34;16.20;83.00
21353;DHT22;10834;52.268;6.770;2022-09-24T11:05:34;16.30;83.10
21353;DHT22;10834;52.268;6.770;2022-09-24T11:12:08;16.20;82.90
21353;DHT22;10834;52.268;6.770;2022-09-24T11:18:25;16.30;83.00
21353;DHT22;10834;52.268;6.770;2022-09-24T11:27:33;16.30;83.30
21353;DHT22;10834;52.268;6.770;2022-09-24T11:30:37;16.30;83.40
21353;DHT22;10834;52.268;6.770;2022-09-24T11:52:02;16.30;84.40
21353;DHT22;10834;52.268;6.770;2022-09-24T11:55:15;16.30;84.50
21353;DHT22;10834;52.268;6.770;2022-09-24T11:58:05;16.30;84.60
21353;DHT22;10834;52.268;6.770;2022-09-24T12:01:09;16.30;84.60
21353;DHT22;10834;52.268;6.770;2022-09-24T12:04:04;16.30;84.70
21353;DHT22;10834;52.268;6.770;2022-09-24T12:07:05;16.30;84.70
21353;DHT22;10834;52.268;6.770;2022-09-24T12:16:28;16.30;84.80
21353;DHT22;10834;52.268;6.770;2022-09-24T12:19:32;16.40;84.80
21353;DHT22;10834;52.268;6.770;2022-09-24T12:22:22;16.30;84.80
21353;DHT22;10834;52.268;6.770;2022-09-24T12:25:11;16.30;84.80
21353;DHT22;10834;52.268;6.770;2022-09-24T12:27:58;16.40;84.80
21353;DHT22;10834;52.268;6.770;2022-09-24T12:30:50;16.40;84.80
21353;DHT22;10834;52.268;6.770;2022-09-24T12:34:21;16.30;84.70
21353;DHT22;10834;52.268;6.770;2022-09-24T12:37:14;16.30;84.70
21353;DHT22;10834;52.268;6.770;2022-09-24T12:42:50;16.40;84.80
21353;DHT22;10834;52.268;6.770;2022-09-24T12:45:37;16.30;84.70
21353;DHT22;10834;52.268;6.770;2022-09-24T12:48:24;16.40;84.70
21353;DHT22;10834;52.268;6.770;2022-09-24T12:51:11;16.40;84.70
21353;DHT22;10834;52.268;6.770;2022-09-24T12:54:06;16.40;84.70
21353;DHT22;10834;52.268;6.770;2022-09-24T12:57:14;16.40;84.70
21353;DHT22;10834;52.268;6.770;2022-09-24T13:00:31;16.40;84.70
21353;DHT22;10834;52.268;6.770;2022-09-24T13:03:44;16.40;84.70
21353;DHT22;10834;52.268;6.770;2022-09-24T13:09:32;16.40;84.70
21353;DHT22;10834;52.268;6.770;2022-09-24T13:12:28;16.40;84.80
21353;DHT22;10834;52.268;6.770;2022-09-24T13:15:25;16.40;84.80
21353;DHT22;10834;52.268;6.770;2022-09-24T13:18:20;16.40;84.80
21353;DHT22;10834;52.268;6.770;2022-09-24T13:21:19;16.40;84.90
21353;DHT22;10834;52.268;6.770;2022-09-24T13:24:27;16.40;84.90
21353;DHT22;10834;52.268;6.770;2022-09-24T13:30:21;16.40;85.00
21353;DHT22;10834;52.268;6.770;2022-09-24T13:33:27;16.40;85.00
21353;DHT22;10834;52.268;6.770;2022-09-24T13:36:17;16.40;85.00
21353;DHT22;10834;52.268;6.770;2022-09-24T13:39:20;16.40;85.10
21353;DHT22;10834;52.268;6.770;2022-09-24T13:45:21;16.40;85.10
21353;DHT22;10834;52.268;6.770;2022-09-24T13:48:36;16.40;85.20
21353;DHT22;10834;52.268;6.770;2022-09-24T13:51:26;16.40;85.20
21353;DHT22;10834;52.268;6.770;2022-09-24T13:54:30;16.40;85.30
21353;DHT22;10834;52.268;6.770;2022-09-24T13:57:25;16.40;85.30
21353;DHT22;10834;52.268;6.770;2022-09-24T14:00:20;16.40;85.30
21353;DHT22;10834;52.268;6.770;2022-09-24T14:03:17;16.40;85.30
21353;DHT22;10834;52.268;6.770;2022-09-24T14:06:11;16.40;85.30
21353;DHT22;10834;52.268;6.770;2022-09-24T14:08:57;16.40;85.40
21353;DHT22;10834;52.268;6.770;2022-09-24T14:11:51;16.40;85.40
21353;DHT22;10834;52.268;6.770;2022-09-24T14:14:42;16.40;85.50
21353;DHT22;10834;52.268;6.770;2022-09-24T14:17:30;16.40;85.50
21353;DHT22;10834;52.268;6.770;2022-09-24T14:20:16;16.40;85.60
21353;DHT22;10834;52.268;6.770;2022-09-24T14:23:03;16.40;85.60
21353;DHT22;10834;52.268;6.770;2022-09-24T14:25:50;16.40;85.70
21353;DHT22;10834;52.268;6.770;2022-09-24T14:28:37;16.40;85.80
21353;DHT22;10834;52.268;6.770;2022-09-24T14:31:23;16.40;85.90
21353;DHT22;10834;52.268;6.770;2022-09-24T14:34:35;16.40;86.10
21353;DHT22;10834;52.268;6.770;2022-09-24T14:37:29;16.40;86.10
21353;DHT22;10834;52.268;6.770;2022-09-24T14:40:18;16.40;86.20
21353;DHT22;10834;52.268;6.770;2022-09-24T14:43:17;16.40;86.20
21353;DHT22;10834;52.268;6.770;2022-09-24T14:46:11;16.40;86.30
21353;DHT22;10834;52.268;6.770;2022-09-24T14:49:19;16.40;86.40
21353;DHT22;10834;52.268;6.770;2022-09-24T14:52:20;16.40;86.40
21353;DHT22;10834;52.268;6.770;2022-09-24T14:55:14;16.40;86.60
21353;DHT22;10834;52.268;6.770;2022-09-24T14:58:00;16.40;86.60
21353;DHT22;10834;52.268;6.770;2022-09-24T15:00:49;16.40;86.60
21353;DHT22;10834;52.268;6.770;2022-09-24T15:03:40;16.40;86.70
21353;DHT22;10834;52.268;6.770;2022-09-24T15:06:31;16.40;86.70
21353;DHT22;10834;52.268;6.770;2022-09-24T15:09:27;16.40;86.80
21353;DHT22;10834;52.268;6.770;2022-09-24T15:12:19;16.40;86.80
21353;DHT22;10834;52.268;6.770;2022-09-24T15:15:24;16.40;87.00
21353;DHT22;10834;52.268;6.770;2022-09-24T15:18:11;16.50;87.20
21353;DHT22;10834;52.268;6.770;2022-09-24T15:20:57;16.50;87.40
21353;DHT22;10834;52.268;6.770;2022-09-24T15:23:44;16.40;87.60
21353;DHT22;10834;52.268;6.770;2022-09-24T15:26:36;16.50;87.80
21353;DHT22;10834;52.268;6.770;2022-09-24T15:29:23;16.50;87.90
21353;DHT22;10834;52.268;6.770;2022-09-24T15:32:17;16.40;87.90
21353;DHT22;10834;52.268;6.770;2022-09-24T15:35:04;16.50;88.00
21353;DHT22;10834;52.268;6.770;2022-09-24T15:37:54;16.40;88.00
21353;DHT22;10834;52.268;6.770;2022-09-24T15:40:40;16.50;88.20
21353;DHT22;10834;52.268;6.770;2022-09-24T15:43:26;16.50;88.30
21353;DHT22;10834;52.268;6.770;2022-09-24T15:46:13;16.50;88.30
21353;DHT22;10834;52.268;6.770;2022-09-24T15:48:59;16.40;88.30
21353;DHT22;10834;52.268;6.770;2022-09-24T15:51:45;16.50;88.40
21353;DHT22;10834;52.268;6.770;2022-09-24T15:54:31;16.50;88.40
21353;DHT22;10834;52.268;6.770;2022-09-24T15:57:16;16.50;88.40
21353;DHT22;10834;52.268;6.770;2022-09-24T16:00:03;16.50;88.40
21353;DHT22;10834;52.268;6.770;2022-09-24T16:02:54;16.50;88.40
21353;DHT22;10834;52.268;6.770;2022-09-24T16:05:40;16.50;88.40
21353;DHT22;10834;52.268;6.770;2022-09-24T16:08:26;16.50;88.40
21353;DHT22;10834;52.268;6.770;2022-09-24T16:11:12;16.50;88.40
21353;DHT22;10834;52.268;6.770;2022-09-24T16:13:58;16.50;88.50
21353;DHT22;10834;52.268;6.770;2022-09-24T16:16:44;16.50;88.50
21353;DHT22;10834;52.268;6.770;2022-09-24T16:19:30;16.40;88.40
21353;DHT22;10834;52.268;6.770;2022-09-24T16:22:16;16.50;88.50
21353;DHT22;10834;52.268;6.770;2022-09-24T16:25:03;16.50;88.60
21353;DHT22;10834;52.268;6.770;2022-09-24T16:27:49;16.40;88.50
21353;DHT22;10834;52.268;6.770;2022-09-24T16:30:36;16.40;88.50
21353;DHT22;10834;52.268;6.770;2022-09-24T16:33:23;16.50;88.70
21353;DHT22;10834;52.268;6.770;2022-09-24T16:36:10;16.40;88.60
21353;DHT22;10834;52.268;6.770;2022-09-24T16:38:56;16.50;88.70
21353;DHT22;10834;52.268;6.770;2022-09-24T16:41:43;16.50;88.70
21353;DHT22;10834;52.268;6.770;2022-09-24T16:44:29;16.50;88.70
21353;DHT22;10834;52.268;6.770;2022-09-24T16:47:15;16.50;88.70
21353;DHT22;10834;52.268;6.770;2022-09-24T16:50:03;16.40;88.70
21353;DHT22;10834;52.268;6.770;2022-09-24T16:52:49;16.50;88.70
21353;DHT22;10834;52.268;6.770;2022-09-24T16:55:39;16.50;88.70
21353;DHT22;10834;52.268;6.770;2022-09-24T16:58:25;16.40;88.60
21353;DHT22;10834;52.268;6.770;2022-09-24T17:01:13;16.50;88.70
21353;DHT22;10834;52.268;6.770;2022-09-24T17:03:59;16.40;88.50
21353;DHT22;10834;52.268;6.770;2022-09-24T17:06:45;16.40;88.50
21353;DHT22;10834;52.268;6.770;2022-09-24T17:09:31;16.50;88.60
21353;DHT22;10834;52.268;6.770;2022-09-24T17:12:35;16.40;88.50
21353;DHT22;10834;52.268;6.770;2022-09-24T17:15:21;16.40;88.50
21353;DHT22;10834;52.268;6.770;2022-09-24T17:18:07;16.40;88.40
21353;DHT22;10834;52.268;6.770;2022-09-24T17:21:05;16.40;88.40
21353;DHT22;10834;52.268;6.770;2022-09-24T17:23:51;16.40;88.40
21353;DHT22;10834;52.268;6.770;2022-09-24T17:26:37;16.40;88.40
21353;DHT22;10834;52.268;6.770;2022-09-24T17:29:24;16.40;88.40
21353;DHT22;10834;52.268;6.770;2022-09-24T17:32:10;16.40;88.20
21353;DHT22;10834;52.268;6.770;2022-09-24T17:34:56;16.40;88.20
21353;DHT22;10834;52.268;6.770;2022-09-24T17:37:42;16.40;88.10
21353;DHT22;10834;52.268;6.770;2022-09-24T17:40:28;16.40;88.10
21353;DHT22;10834;52.268;6.770;2022-09-24T17:43:14;16.40;88.00
21353;DHT22;10834;52.268;6.770;2022-09-24T17:48:52;16.40;88.00
21353;DHT22;10834;52.268;6.770;2022-09-24T17:51:38;16.40;88.00
21353;DHT22;10834;52.268;6.770;2022-09-24T17:54:24;16.40;88.00
21353;DHT22;10834;52.268;6.770;2022-09-24T17:57:11;16.40;88.00
21353;DHT22;10834;52.268;6.770;2022-09-24T17:59:57;16.40;88.00
21353;DHT22;10834;52.268;6.770;2022-09-24T18:02:43;16.40;88.70
21353;DHT22;10834;52.268;6.770;2022-09-24T18:05:29;16.40;87.90
21353;DHT22;10834;52.268;6.770;2022-09-24T18:08:15;16.30;87.90
21353;DHT22;10834;52.268;6.770;2022-09-24T18:13:57;16.30;87.90
21353;DHT22;10834;52.268;6.770;2022-09-24T18:16:44;16.30;87.90
21353;DHT22;10834;52.268;6.770;2022-09-24T18:19:30;16.30;87.90
21353;DHT22;10834;52.268;6.770;2022-09-24T18:22:15;16.30;87.90
21353;DHT22;10834;52.268;6.770;2022-09-24T18:25:01;16.30;87.90
21353;DHT22;10834;52.268;6.770;2022-09-24T18:27:50;16.30;87.90
21353;DHT22;10834;52.268;6.770;2022-09-24T18:30:36;16.30;87.90
21353;DHT22;10834;52.268;6.770;2022-09-24T18:33:22;16.30;87.80
21353;DHT22;10834;52.268;6.770;2022-09-24T18:36:12;16.30;87.90
21353;DHT22;10834;52.268;6.770;2022-09-24T18:38:58;16.30;87.80
21353;DHT22;10834;52.268;6.770;2022-09-24T18:41:45;16.30;87.80
21353;DHT22;10834;52.268;6.770;2022-09-24T18:44:30;16.30;87.80
21353;DHT22;10834;52.268;6.770;2022-09-24T18:47:18;16.30;87.80
21353;DHT22;10834;52.268;6.770;2022-09-24T18:50:05;16.30;87.70
21353;DHT22;10834;52.268;6.770;2022-09-24T18:52:51;16.30;87.70
21353;DHT22;10834;52.268;6.770;2022-09-24T18:55:41;16.30;87.70
21353;DHT22;10834;52.268;6.770;2022-09-24T18:58:27;16.30;87.70
21353;DHT22;10834;52.268;6.770;2022-09-24T19:01:13;16.30;87.70
21353;DHT22;10834;52.268;6.770;2022-09-24T19:04:01;16.30;87.60
21353;DHT22;10834;52.268;6.770;2022-09-24T19:06:47;16.30;87.60
21353;DHT22;10834;52.268;6.770;2022-09-24T19:09:35;16.30;87.60
21353;DHT22;10834;52.268;6.770;2022-09-24T19:12:21;16.30;87.60
21353;DHT22;10834;52.268;6.770;2022-09-24T19:15:07;16.30;87.60
21353;DHT22;10834;52.268;6.770;2022-09-24T19:17:53;16.30;87.50
21353;DHT22;10834;52.268;6.770;2022-09-24T19:20:41;16.30;87.50
21353;DHT22;10834;52.268;6.770;2022-09-24T19:23:27;16.30;87.40
21353;DHT22;10834;52.268;6.770;2022-09-24T19:26:16;16.30;87.40
21353;DHT22;10834;52.268;6.770;2022-09-24T19:29:03;16.20;87.40
21353;DHT22;10834;52.268;6.770;2022-09-24T19:31:49;16.30;87.40
21353;DHT22;10834;52.268;6.770;2022-09-24T19:34:36;16.30;87.30
21353;DHT22;10834;52.268;6.770;2022-09-24T19:37:22;16.20;87.20
21353;DHT22;10834;52.268;6.770;2022-09-24T19:40:08;16.20;87.20
21353;DHT22;10834;52.268;6.770;2022-09-24T19:42:55;16.20;87.20
21353;DHT22;10834;52.268;6.770;2022-09-24T19:45:40;16.20;87.20
21353;DHT22;10834;52.268;6.770;2022-09-24T19:48:28;16.20;87.10
21353;DHT22;10834;52.268;6.770;2022-09-24T19:54:07;16.20;87.10
21353;DHT22;10834;52.268;6.770;2022-09-24T19:56:53;16.20;87.10
21353;DHT22;10834;52.268;6.770;2022-09-24T19:59:39;16.20;87.00
21353;DHT22;10834;52.268;6.770;2022-09-24T20:02:25;16.20;87.10
21353;DHT22;10834;52.268;6.770;2022-09-24T20:05:11;16.20;87.00
21353;DHT22;10834;52.268;6.770;2022-09-24T20:07:56;16.20;86.90
21353;DHT22;10834;52.268;6.770;2022-09-24T20:10:42;16.20;86.90
21353;DHT22;10834;52.268;6.770;2022-09-24T20:13:32;16.20;86.90
21353;DHT22;10834;52.268;6.770;2022-09-24T20:16:21;16.20;87.60
21353;DHT22;10834;52.268;6.770;2022-09-24T20:19:10;16.20;86.90
21353;DHT22;10834;52.268;6.770;2022-09-24T20:21:56;16.20;86.90
21353;DHT22;10834;52.268;6.770;2022-09-24T20:24:43;16.20;86.80
21353;DHT22;10834;52.268;6.770;2022-09-24T20:27:29;16.20;86.80
21353;DHT22;10834;52.268;6.770;2022-09-24T20:30:34;16.20;86.80
21353;DHT22;10834;52.268;6.770;2022-09-24T20:33:22;16.20;86.80
21353;DHT22;10834;52.268;6.770;2022-09-24T20:36:09;16.10;86.70
21353;DHT22;10834;52.268;6.770;2022-09-24T20:38:58;16.10;86.60
21353;DHT22;10834;52.268;6.770;2022-09-24T20:41:44;16.10;86.70
21353;DHT22;10834;52.268;6.770;2022-09-24T20:44:31;16.10;86.70
21353;DHT22;10834;52.268;6.770;2022-09-24T20:47:17;16.10;86.60
21353;DHT22;10834;52.268;6.770;2022-09-24T20:50:04;16.10;86.60
21353;DHT22;10834;52.268;6.770;2022-09-24T20:52:50;16.10;86.60
21353;DHT22;10834;52.268;6.770;2022-09-24T20:55:37;16.10;87.30
21353;DHT22;10834;52.268;6.770;2022-09-24T20:58:23;16.10;86.60
21353;DHT22;10834;52.268;6.770;2022-09-24T21:01:10;16.10;86.60
21353;DHT22;10834;52.268;6.770;2022-09-24T21:03:56;16.10;86.60
21353;DHT22;10834;52.268;6.770;2022-09-24T21:06:42;16.10;86.70
21353;DHT22;10834;52.268;6.770;2022-09-24T21:09:28;16.10;86.60
21353;DHT22;10834;52.268;6.770;2022-09-24T21:12:14;16.10;86.60
21353;DHT22;10834;52.268;6.770;2022-09-24T21:15:00;16.10;86.70
21353;DHT22;10834;52.268;6.770;2022-09-24T21:17:47;16.10;86.70
21353;DHT22;10834;52.268;6.770;2022-09-24T21:20:35;16.00;86.60
21353;DHT22;10834;52.268;6.770;2022-09-24T21:23:22;16.10;86.80
21353;DHT22;10834;52.268;6.770;2022-09-24T21:26:26;16.00;86.70
21353;DHT22;10834;52.268;6.770;2022-09-24T21:29:17;16.00;86.80
21353;DHT22;10834;52.268;6.770;2022-09-24T21:32:05;16.00;86.70
21353;DHT22;10834;52.268;6.770;2022-09-24T21:34:51;16.00;86.80
21353;DHT22;10834;52.268;6.770;2022-09-24T21:37:36;16.00;86.80
21353;DHT22;10834;52.268;6.770;2022-09-24T21:40:23;16.00;86.80
21353;DHT22;10834;52.268;6.770;2022-09-24T21:43:09;16.00;86.80
21353;DHT22;10834;52.268;6.770;2022-09-24T21:46:05;16.00;86.80
21353;DHT22;10834;52.268;6.770;2022-09-24T21:48:51;16.00;86.80
21353;DHT22;10834;52.268;6.770;2022-09-24T21:51:38;16.00;86.90
21353;DHT22;10834;52.268;6.770;2022-09-24T21:54:25;16.00;86.90
21353;DHT22;10834;52.268;6.770;2022-09-24T21:57:11;16.00;86.90
21353;DHT22;10834;52.268;6.770;2022-09-24T21:59:57;16.00;86.90
21353;DHT22;10834;52.268;6.770;2022-09-24T22:02:48;15.90;86.80
21353;DHT22;10834;52.268;6.770;2022-09-24T22:05:37;15.90;86.80
21353;DHT22;10834;52.268;6.770;2022-09-24T22:08:28;15.90;86.80
21353;DHT22;10834;52.268;6.770;2022-09-24T22:11:16;15.90;86.80
21353;DHT22;10834;52.268;6.770;2022-09-24T22:14:02;15.90;86.80
21353;DHT22;10834;52.268;6.770;2022-09-24T22:16:48;15.90;86.80
21353;DHT22;10834;52.268;6.770;2022-09-24T22:19:34;15.90;86.80
21353;DHT22;10834;52.268;6.770;2022-09-24T22:22:20;15.90;86.80
21353;DHT22;10834;52.268;6.770;2022-09-24T22:25:07;15.90;86.80
21353;DHT22;10834;52.268;6.770;2022-09-24T22:27:53;15.90;86.70
21353;DHT22;10834;52.268;6.770;2022-09-24T22:30:42;15.90;86.70
21353;DHT22;10834;52.268;6.770;2022-09-24T22:33:29;15.90;86.70
21353;DHT22;10834;52.268;6.770;2022-09-24T22:36:34;15.90;86.70
21353;DHT22;10834;52.268;6.770;2022-09-24T22:39:20;15.80;86.60
21353;DHT22;10834;52.268;6.770;2022-09-24T22:42:06;15.90;86.70
21353;DHT22;10834;52.268;6.770;2022-09-24T22:44:52;15.80;86.60
21353;DHT22;10834;52.268;6.770;2022-09-24T22:47:38;15.90;86.60
21353;DHT22;10834;52.268;6.770;2022-09-24T22:50:24;15.80;86.60
21353;DHT22;10834;52.268;6.770;2022-09-24T22:53:10;15.80;86.60
21353;DHT22;10834;52.268;6.770;2022-09-24T22:56:10;15.80;86.60
21353;DHT22;10834;52.268;6.770;2022-09-24T22:58:58;15.80;86.60
21353;DHT22;10834;52.268;6.770;2022-09-24T23:01:44;15.80;86.60
21353;DHT22;10834;52.268;6.770;2022-09-24T23:04:30;15.80;86.60
21353;DHT22;10834;52.268;6.770;2022-09-24T23:07:17;15.80;86.60
21353;DHT22;10834;52.268;6.770;2022-09-24T23:10:03;15.80;86.60
21353;DHT22;10834;52.268;6.770;2022-09-24T23:12:50;15.80;86.60
21353;DHT22;10834;52.268;6.770;2022-09-24T23:15:36;15.70;86.60
21353;DHT22;10834;52.268;6.770;2022-09-24T23:18:22;15.70;86.60
21353;DHT22;10834;52.268;6.770;2022-09-24T23:21:10;15.70;86.60
21353;DHT22;10834;52.268;6.770;2022-09-24T23:23:59;15.70;86.60
21353;DHT22;10834;52.268;6.770;2022-09-24T23:26:46;15.70;86.60
21353;DHT22;10834;52.268;6.770;2022-09-24T23:29:32;15.70;86.60
21353;DHT22;10834;52.268;6.770;2022-09-24T23:32:18;15.70;86.70
21353;DHT22;10834;52.268;6.770;2022-09-24T23:35:04;15.70;86.70
21353;DHT22;10834;52.268;6.770;2022-09-24T23:37:50;15.70;86.80
21353;DHT22;10834;52.268;6.770;2022-09-24T23:40:36;15.70;86.80
21353;DHT22;10834;52.268;6.770;2022-09-24T23:43:22;15.70;86.80
21353;DHT22;10834;52.268;6.770;2022-09-24T23:46:08;15.70;86.80
21353;DHT22;10834;52.268;6.770;2022-09-24T23:48:55;15.70;86.90
21353;DHT22;10834;52.268;6.770;2022-09-24T23:51:41;15.70;86.90
21353;DHT22;10834;52.268;6.770;2022-09-24T23:54:28;15.70;86.90
21353;DHT22;10834;52.268;6.770;2022-09-24T23:57:14;15.70;86.90
